Capo Vado — IPWV — position and weather

sailwx.info

Track history (hours):
 
Tides and Currents Weather Stations Pressure Air Temp Water Temp Dewpoint Dewpoint Depression Visibility Wind Speed Wind Dir Waves Ship Positions

Capo Vado

Last reported at 2015-Jul-05 16:25 UTC. Time now 2015-Jul-05 17:29 UTC.
Position N 44°18' E 008°29'.

Length 30 m.

Type: Tug. MMSI: 247228400.

Date/timePositionNaut miles runAvg speedWind from/ knotsBaromVisibWave heightAir tempDewpointWater temp
2015-Jul-05 16:25N 44°18' E 008°29'2 1.1
2015-Jul-05 14:29N 44°17' E 008°28'0 0.3
2015-Jul-05 13:14N 44°17' E 008°28'2 1.2
2015-Jul-05 11:23N 44°18' E 008°29'0 0.0
2015-Jul-05 09:29N 44°18' E 008°29'0 0.0
2015-Jul-05 08:29N 44°18' E 008°29'0 0.0
2015-Jul-05 07:26N 44°18' E 008°29'0 0.0
2015-Jul-05 06:05N 44°18' E 008°29'0 0.0
2015-Jul-05 05:29N 44°18' E 008°29'0 0.0
2015-Jul-05 03:20N 44°18' E 008°29'0 0.0
2015-Jul-05 02:23N 44°18' E 008°29'0 0.0
2015-Jul-05 01:23N 44°18' E 008°29'0 0.0
2015-Jul-05 00:29N 44°18' E 008°29'0 0.0
2015-Jul-04 23:29N 44°18' E 008°29'0 0.0
2015-Jul-04 22:17N 44°18' E 008°29'0 0.0
2015-Jul-04 20:23N 44°18' E 008°29'0 0.0
2015-Jul-04 19:29N 44°18' E 008°29'0 0.0
2015-Jul-04 18:29N 44°18' E 008°29'0 0.0
2015-Jul-04 17:29N 44°18' E 008°29'0 0.0
2015-Jul-04 16:29N 44°18' E 008°29'0 0.0
2015-Jul-04 15:29N 44°18' E 008°29'0 0.0
2015-Jul-04 14:29N 44°18' E 008°29'0 0.0
2015-Jul-04 12:29N 44°18' E 008°29'0 0.0
2015-Jul-04 11:26N 44°18' E 008°29'0 0.0
2015-Jul-04 10:29N 44°18' E 008°29'0 0.0
2015-Jul-04 09:29N 44°18' E 008°29'0 0.0
2015-Jul-04 08:23N 44°18' E 008°29'2 2.3
2015-Jul-04 07:33N 44°17' E 008°28'0 0.1
2015-Jul-04 06:30N 44°17' E 008°28'1 1.3
2015-Jul-04 05:30N 44°16' E 008°29'3 3.1
2015-Jul-04 04:32N 44°19' E 008°30'0 0.1
2015-Jul-03 23:16N 44°18' E 008°29'0 0.0
2015-Jul-03 22:28N 44°18' E 008°29'0 0.0
2015-Jul-03 18:25N 44°18' E 008°29'0 0.0
2015-Jul-03 17:28N 44°18' E 008°29'0 0.0
2015-Jul-03 16:31N 44°18' E 008°29'0 0.0
2015-Jul-03 15:28N 44°18' E 008°29'0 0.0
2015-Jul-03 14:25N 44°18' E 008°29'0 0.0
2015-Jul-03 12:28N 44°18' E 008°29'0 0.0
2015-Jul-03 11:28N 44°18' E 008°29'0 0.0
2015-Jul-03 10:22N 44°18' E 008°29'0 0.0
2015-Jul-03 09:22N 44°18' E 008°29'0 0.0
2015-Jul-03 08:22N 44°18' E 008°29'0 0.0
2015-Jul-03 07:31N 44°18' E 008°29'0 0.0
2015-Jul-03 06:22N 44°18' E 008°29'0 0.0
2015-Jul-03 05:28N 44°18' E 008°29'0 0.0
2015-Jul-03 04:31N 44°18' E 008°29'0 0.0
2015-Jul-03 03:19N 44°18' E 008°29'0 0.0
2015-Jul-03 02:16N 44°18' E 008°29'0 0.0
2015-Jul-03 01:31N 44°18' E 008°29'0 0.0
2015-Jul-03 00:19N 44°18' E 008°29'0 0.0
2015-Jul-02 22:31N 44°18' E 008°29'0 0.0
2015-Jul-02 21:31N 44°18' E 008°29'0 0.0
2015-Jul-02 20:28N 44°18' E 008°29'0 0.0
2015-Jul-02 19:25N 44°18' E 008°29'0 0.0
2015-Jul-02 17:22N 44°18' E 008°29'0 0.0
2015-Jul-02 16:28N 44°18' E 008°29'0 0.0
2015-Jul-02 15:28N 44°18' E 008°29'0 0.0
2015-Jul-02 14:28N 44°18' E 008°29'0 0.0
2015-Jul-02 13:16N 44°18' E 008°29'3 2.6
2015-Jul-02 12:11N 44°16' E 008°27'1 1.7
2015-Jul-02 11:33N 44°17' E 008°28'2 1.3
2015-Jul-02 10:09N 44°18' E 008°29'0 0.0
2015-Jul-02 09:33N 44°18' E 008°29'0 0.0
2015-Jul-02 08:33N 44°18' E 008°29'0 0.0
2015-Jul-02 07:30N 44°18' E 008°29'0 0.0
2015-Jul-02 06:33N 44°18' E 008°29'0 0.0
2015-Jul-02 05:33N 44°18' E 008°29'0 0.0
2015-Jul-02 04:33N 44°18' E 008°29'0 0.0
2015-Jul-02 03:33N 44°18' E 008°29'0 0.0
2015-Jul-02 02:30N 44°18' E 008°29'0 0.0
2015-Jul-02 01:27N 44°18' E 008°29'0 0.0
2015-Jul-02 00:15N 44°18' E 008°29'0 0.0
2015-Jul-01 23:33N 44°18' E 008°29'0 0.0
2015-Jul-01 22:27N 44°18' E 008°29'0 0.0
2015-Jul-01 21:33N 44°18' E 008°29'0 0.0
2015-Jul-01 20:33N 44°18' E 008°29'0 0.0
2015-Jul-01 19:33N 44°18' E 008°29'0 0.0
2015-Jul-01 18:33N 44°18' E 008°29'0 0.0
2015-Jul-01 17:33N 44°18' E 008°29'0 0.0
2015-Jul-01 16:27N 44°18' E 008°29'0 0.0
2015-Jul-01 13:30N 44°18' E 008°29'0 0.0
2015-Jul-01 12:33N 44°18' E 008°29'0 0.0
2015-Jul-01 11:21N 44°18' E 008°29'0 0.0
2015-Jul-01 10:33N 44°18' E 008°29'0 0.0
2015-Jul-01 09:33N 44°18' E 008°29'0 0.0
2015-Jul-01 08:33N 44°18' E 008°29'0 0.0
2015-Jul-01 07:15N 44°18' E 008°29'0 0.0
2015-Jul-01 06:03N 44°18' E 008°29'0 0.0
2015-Jul-01 05:33N 44°18' E 008°29'0 0.0
2015-Jul-01 04:33N 44°18' E 008°29'0 0.0
2015-Jul-01 03:33N 44°18' E 008°29'0 0.0
2015-Jul-01 02:33N 44°18' E 008°29'0 0.0
2015-Jul-01 01:33N 44°18' E 008°29'0 0.0
2015-Jul-01 00:33N 44°18' E 008°29'0 0.0
2015-Jun-30 23:33N 44°18' E 008°29'0 0.0
2015-Jun-30 22:27N 44°18' E 008°29'0 0.0
2015-Jun-30 21:33N 44°18' E 008°29'0 0.0
2015-Jun-30 20:12N 44°18' E 008°29'0 0.0
2015-Jun-30 19:33N 44°18' E 008°29'0 0.0
2015-Jun-30 18:33N 44°18' E 008°29'0 0.0
2015-Jun-30 17:33N 44°18' E 008°29'0 0.0
2015-Jun-30 16:33N 44°18' E 008°29'0 0.0
2015-Jun-30 15:33N 44°18' E 008°29'0 0.0
2015-Jun-30 14:33N 44°18' E 008°29'0 0.0
2015-Jun-30 11:27N 44°18' E 008°29'0 0.0
2015-Jun-30 10:33N 44°18' E 008°29'0 0.0
2015-Jun-30 09:33N 44°18' E 008°29'0 0.0
2015-Jun-30 08:33N 44°18' E 008°29'0 0.0
2015-Jun-30 07:33N 44°18' E 008°29'0 0.0
2015-Jun-30 06:30N 44°18' E 008°29'0 0.0
2015-Jun-30 05:33N 44°18' E 008°29'0 0.0
2015-Jun-30 04:33N 44°18' E 008°29'0 0.0
2015-Jun-30 03:30N 44°18' E 008°29'0 0.0
2015-Jun-30 02:30N 44°18' E 008°29'0 0.0
2015-Jun-30 01:30N 44°18' E 008°29'0 0.0
2015-Jun-30 00:33N 44°18' E 008°29'0 0.0
2015-Jun-29 23:33N 44°18' E 008°29'0 0.0
2015-Jun-29 22:33N 44°18' E 008°29'0 0.0
2015-Jun-29 21:33N 44°18' E 008°29'0 0.0
2015-Jun-29 20:33N 44°18' E 008°29'0 0.0
2015-Jun-29 19:33N 44°18' E 008°29'0 0.0
2015-Jun-29 18:30N 44°18' E 008°29'0 0.0
2015-Jun-29 17:33N 44°18' E 008°29'0 0.0
2015-Jun-29 16:27N 44°18' E 008°29'0 0.0
2015-Jun-29 15:33N 44°18' E 008°29'0 0.0
2015-Jun-29 14:33N 44°18' E 008°29'0 0.0
2015-Jun-29 13:30N 44°18' E 008°29'0 0.0
2015-Jun-29 12:27N 44°18' E 008°29'0 0.0
2015-Jun-29 11:33N 44°18' E 008°29'0 0.0
2015-Jun-29 10:33N 44°18' E 008°29'0 0.0
2015-Jun-29 09:33N 44°18' E 008°29'0 0.0
2015-Jun-29 08:33N 44°18' E 008°29'0 0.0
2015-Jun-29 07:33N 44°18' E 008°29'0 0.0
2015-Jun-29 06:33N 44°18' E 008°29'0 0.0
2015-Jun-29 05:30N 44°18' E 008°29'0 0.0
2015-Jun-29 04:33N 44°18' E 008°29'0 0.0
2015-Jun-29 03:33N 44°18' E 008°29'0 0.0
2015-Jun-29 02:33N 44°18' E 008°29'0 0.0
2015-Jun-29 01:24N 44°18' E 008°29'0 0.0
2015-Jun-29 00:33N 44°18' E 008°29'0 0.0
2015-Jun-28 23:33N 44°18' E 008°29'0 0.0
2015-Jun-28 22:33N 44°18' E 008°29'0 0.0
2015-Jun-28 21:21N 44°18' E 008°29'0 0.0
2015-Jun-28 20:33N 44°18' E 008°29'0 0.0
2015-Jun-28 19:27N 44°18' E 008°29'0 0.0
2015-Jun-28 17:30N 44°18' E 008°29'0 0.0
2015-Jun-28 16:27N 44°18' E 008°29'0 0.0
2015-Jun-28 11:33N 44°18' E 008°29'0 0.0
2015-Jun-28 10:33N 44°18' E 008°29'0 0.0
2015-Jun-28 09:33N 44°18' E 008°29'2 1.5
2015-Jun-28 08:09N 44°17' E 008°28'0 0.1
2015-Jun-28 07:33N 44°17' E 008°28'0 0.0
2015-Jun-28 06:33N 44°17' E 008°28'0 0.5
2015-Jun-28 05:33N 44°16' E 008°28'2 2.4
2015-Jun-28 04:34N 44°18' E 008°30'1 0.7
2015-Jun-28 03:29N 44°18' E 008°29'0 0.0
2015-Jun-27 22:29N 44°18' E 008°29'0 0.0
2015-Jun-27 21:11N 44°18' E 008°29'0 0.0
2015-Jun-27 19:23N 44°18' E 008°29'0 0.0
2015-Jun-27 18:20N 44°18' E 008°29'0 0.0
2015-Jun-27 17:32N 44°18' E 008°29'0 0.0
2015-Jun-27 16:29N 44°18' E 008°29'0 0.0
2015-Jun-27 15:29N 44°18' E 008°29'0 0.0
2015-Jun-27 14:29N 44°18' E 008°29'0 0.0
2015-Jun-27 13:17N 44°18' E 008°29'0 0.0
2015-Jun-27 12:26N 44°18' E 008°29'0 0.0
2015-Jun-27 11:29N 44°18' E 008°29'0 0.0
2015-Jun-27 10:32N 44°18' E 008°29'0 0.0
2015-Jun-27 09:32N 44°18' E 008°29'0 0.0
2015-Jun-27 08:32N 44°18' E 008°29'0 0.0
2015-Jun-27 07:32N 44°18' E 008°29'0 0.0
2015-Jun-27 06:32N 44°18' E 008°29'0 0.0
2015-Jun-27 05:32N 44°18' E 008°29'0 0.0
2015-Jun-27 04:32N 44°18' E 008°29'0 0.0
2015-Jun-27 03:32N 44°18' E 008°29'0 0.0
2015-Jun-27 02:32N 44°18' E 008°29'0 0.0
2015-Jun-27 01:32N 44°18' E 008°29'0 0.0
2015-Jun-27 00:32N 44°18' E 008°29'0 0.0
2015-Jun-26 23:32N 44°18' E 008°29'0 0.0
2015-Jun-26 22:32N 44°18' E 008°29'0 0.0
2015-Jun-26 21:26N 44°18' E 008°29'0 0.0
2015-Jun-26 20:32N 44°18' E 008°29'0 0.0
2015-Jun-26 19:32N 44°18' E 008°29'0 0.0
2015-Jun-26 18:32N 44°18' E 008°29'0 0.0
2015-Jun-26 17:26N 44°18' E 008°29'0 0.0
2015-Jun-26 16:32N 44°18' E 008°29'1 0.6
2015-Jun-26 15:33N 44°19' E 008°30'1 0.5
2015-Jun-26 14:29N 44°18' E 008°29'0 0.0
2015-Jun-26 13:32N 44°18' E 008°29'0 0.0
2015-Jun-26 12:32N 44°18' E 008°29'0 0.0
2015-Jun-26 11:29N 44°18' E 008°29'0 0.0
2015-Jun-26 10:32N 44°18' E 008°29'0 0.0
2015-Jun-26 09:32N 44°18' E 008°29'0 0.0
2015-Jun-26 08:32N 44°18' E 008°29'0 0.0
2015-Jun-26 07:29N 44°18' E 008°29'0 0.5
2015-Jun-26 06:33N 44°18' E 008°30'2 2.1
2015-Jun-26 05:29N 44°17' E 008°28'2 2.2
2015-Jun-26 04:31N 44°18' E 008°29'0 0.0
2015-Jun-26 03:31N 44°18' E 008°29'0 0.0
2015-Jun-26 02:31N 44°18' E 008°29'0 0.0
2015-Jun-26 01:31N 44°18' E 008°29'0 0.0
2015-Jun-26 00:31N 44°18' E 008°29'0 0.0
2015-Jun-25 23:31N 44°18' E 008°29'0 0.0
2015-Jun-25 22:31N 44°18' E 008°29'0 0.0
2015-Jun-25 21:31N 44°18' E 008°29'0 0.0
2015-Jun-25 20:31N 44°18' E 008°29'0 0.0
2015-Jun-25 19:28N 44°18' E 008°29'0 0.0
2015-Jun-25 18:31N 44°18' E 008°29'0 0.0
2015-Jun-25 17:31N 44°18' E 008°29'0 0.0
2015-Jun-25 16:31N 44°18' E 008°29'  
Track history (hours):
 
Tides and Currents Weather Stations Pressure Air Temp Water Temp Dewpoint Dewpoint Depression Visibility Wind Speed Wind Dir Waves Ship Positions

Capo Vado

Last reported at 2015-Jul-05 16:25 UTC. Time now 2015-Jul-05 17:29 UTC.
Position N 44°18' E 008°29'.

Length 30 m.

Type: Tug. MMSI: 247228400.

Date/timePositionNaut miles runAvg speedWind from/ knotsBaromVisibWave heightAir tempDewpointWater temp
2015-Jul-05 16:25N 44°18' E 008°29'2 1.1
2015-Jul-05 14:29N 44°17' E 008°28'0 0.3
2015-Jul-05 13:14N 44°17' E 008°28'2 1.2
2015-Jul-05 11:23N 44°18' E 008°29'0 0.0
2015-Jul-05 09:29N 44°18' E 008°29'0 0.0
2015-Jul-05 08:29N 44°18' E 008°29'0 0.0
2015-Jul-05 07:26N 44°18' E 008°29'0 0.0
2015-Jul-05 06:05N 44°18' E 008°29'0 0.0
2015-Jul-05 05:29N 44°18' E 008°29'0 0.0
2015-Jul-05 03:20N 44°18' E 008°29'0 0.0
2015-Jul-05 02:23N 44°18' E 008°29'0 0.0
2015-Jul-05 01:23N 44°18' E 008°29'0 0.0
2015-Jul-05 00:29N 44°18' E 008°29'0 0.0
2015-Jul-04 23:29N 44°18' E 008°29'0 0.0
2015-Jul-04 22:17N 44°18' E 008°29'0 0.0
2015-Jul-04 20:23N 44°18' E 008°29'0 0.0
2015-Jul-04 19:29N 44°18' E 008°29'0 0.0
2015-Jul-04 18:29N 44°18' E 008°29'0 0.0
2015-Jul-04 17:29N 44°18' E 008°29'0 0.0
2015-Jul-04 16:29N 44°18' E 008°29'0 0.0
2015-Jul-04 15:29N 44°18' E 008°29'0 0.0
2015-Jul-04 14:29N 44°18' E 008°29'0 0.0
2015-Jul-04 12:29N 44°18' E 008°29'0 0.0
2015-Jul-04 11:26N 44°18' E 008°29'0 0.0
2015-Jul-04 10:29N 44°18' E 008°29'0 0.0
2015-Jul-04 09:29N 44°18' E 008°29'0 0.0
2015-Jul-04 08:23N 44°18' E 008°29'2 2.3
2015-Jul-04 07:33N 44°17' E 008°28'0 0.1
2015-Jul-04 06:30N 44°17' E 008°28'1 1.3
2015-Jul-04 05:30N 44°16' E 008°29'3 3.1
2015-Jul-04 04:32N 44°19' E 008°30'0 0.1
2015-Jul-03 23:16N 44°18' E 008°29'0 0.0
2015-Jul-03 22:28N 44°18' E 008°29'0 0.0
2015-Jul-03 18:25N 44°18' E 008°29'0 0.0
2015-Jul-03 17:28N 44°18' E 008°29'0 0.0
2015-Jul-03 16:31N 44°18' E 008°29'0 0.0
2015-Jul-03 15:28N 44°18' E 008°29'0 0.0
2015-Jul-03 14:25N 44°18' E 008°29'0 0.0
2015-Jul-03 12:28N 44°18' E 008°29'0 0.0
2015-Jul-03 11:28N 44°18' E 008°29'0 0.0
2015-Jul-03 10:22N 44°18' E 008°29'0 0.0
2015-Jul-03 09:22N 44°18' E 008°29'0 0.0
2015-Jul-03 08:22N 44°18' E 008°29'0 0.0
2015-Jul-03 07:31N 44°18' E 008°29'0 0.0
2015-Jul-03 06:22N 44°18' E 008°29'0 0.0
2015-Jul-03 05:28N 44°18' E 008°29'0 0.0
2015-Jul-03 04:31N 44°18' E 008°29'0 0.0
2015-Jul-03 03:19N 44°18' E 008°29'0 0.0
2015-Jul-03 02:16N 44°18' E 008°29'0 0.0
2015-Jul-03 01:31N 44°18' E 008°29'0 0.0
2015-Jul-03 00:19N 44°18' E 008°29'0 0.0
2015-Jul-02 22:31N 44°18' E 008°29'0 0.0
2015-Jul-02 21:31N 44°18' E 008°29'0 0.0
2015-Jul-02 20:28N 44°18' E 008°29'0 0.0
2015-Jul-02 19:25N 44°18' E 008°29'0 0.0
2015-Jul-02 17:22N 44°18' E 008°29'0 0.0
2015-Jul-02 16:28N 44°18' E 008°29'0 0.0
2015-Jul-02 15:28N 44°18' E 008°29'0 0.0
2015-Jul-02 14:28N 44°18' E 008°29'0 0.0
2015-Jul-02 13:16N 44°18' E 008°29'3 2.6
2015-Jul-02 12:11N 44°16' E 008°27'1 1.7
2015-Jul-02 11:33N 44°17' E 008°28'2 1.3
2015-Jul-02 10:09N 44°18' E 008°29'0 0.0
2015-Jul-02 09:33N 44°18' E 008°29'0 0.0
2015-Jul-02 08:33N 44°18' E 008°29'0 0.0
2015-Jul-02 07:30N 44°18' E 008°29'0 0.0
2015-Jul-02 06:33N 44°18' E 008°29'0 0.0
2015-Jul-02 05:33N 44°18' E 008°29'0 0.0
2015-Jul-02 04:33N 44°18' E 008°29'0 0.0
2015-Jul-02 03:33N 44°18' E 008°29'0 0.0
2015-Jul-02 02:30N 44°18' E 008°29'0 0.0
2015-Jul-02 01:27N 44°18' E 008°29'0 0.0
2015-Jul-02 00:15N 44°18' E 008°29'0 0.0
2015-Jul-01 23:33N 44°18' E 008°29'0 0.0
2015-Jul-01 22:27N 44°18' E 008°29'0 0.0
2015-Jul-01 21:33N 44°18' E 008°29'0 0.0
2015-Jul-01 20:33N 44°18' E 008°29'0 0.0
2015-Jul-01 19:33N 44°18' E 008°29'0 0.0
2015-Jul-01 18:33N 44°18' E 008°29'0 0.0
2015-Jul-01 17:33N 44°18' E 008°29'0 0.0
2015-Jul-01 16:27N 44°18' E 008°29'0 0.0
2015-Jul-01 13:30N 44°18' E 008°29'0 0.0
2015-Jul-01 12:33N 44°18' E 008°29'0 0.0
2015-Jul-01 11:21N 44°18' E 008°29'0 0.0
2015-Jul-01 10:33N 44°18' E 008°29'0 0.0
2015-Jul-01 09:33N 44°18' E 008°29'0 0.0
2015-Jul-01 08:33N 44°18' E 008°29'0 0.0
2015-Jul-01 07:15N 44°18' E 008°29'0 0.0
2015-Jul-01 06:03N 44°18' E 008°29'0 0.0
2015-Jul-01 05:33N 44°18' E 008°29'0 0.0
2015-Jul-01 04:33N 44°18' E 008°29'0 0.0
2015-Jul-01 03:33N 44°18' E 008°29'0 0.0
2015-Jul-01 02:33N 44°18' E 008°29'0 0.0
2015-Jul-01 01:33N 44°18' E 008°29'0 0.0
2015-Jul-01 00:33N 44°18' E 008°29'0 0.0
2015-Jun-30 23:33N 44°18' E 008°29'0 0.0
2015-Jun-30 22:27N 44°18' E 008°29'0 0.0
2015-Jun-30 21:33N 44°18' E 008°29'0 0.0
2015-Jun-30 20:12N 44°18' E 008°29'0 0.0
2015-Jun-30 19:33N 44°18' E 008°29'0 0.0
2015-Jun-30 18:33N 44°18' E 008°29'0 0.0
2015-Jun-30 17:33N 44°18' E 008°29'0 0.0
2015-Jun-30 16:33N 44°18' E 008°29'0 0.0
2015-Jun-30 15:33N 44°18' E 008°29'0 0.0
2015-Jun-30 14:33N 44°18' E 008°29'0 0.0
2015-Jun-30 11:27N 44°18' E 008°29'0 0.0
2015-Jun-30 10:33N 44°18' E 008°29'0 0.0
2015-Jun-30 09:33N 44°18' E 008°29'0 0.0
2015-Jun-30 08:33N 44°18' E 008°29'0 0.0
2015-Jun-30 07:33N 44°18' E 008°29'0 0.0
2015-Jun-30 06:30N 44°18' E 008°29'0 0.0
2015-Jun-30 05:33N 44°18' E 008°29'0 0.0
2015-Jun-30 04:33N 44°18' E 008°29'0 0.0
2015-Jun-30 03:30N 44°18' E 008°29'0 0.0
2015-Jun-30 02:30N 44°18' E 008°29'0 0.0
2015-Jun-30 01:30N 44°18' E 008°29'0 0.0
2015-Jun-30 00:33N 44°18' E 008°29'0 0.0
2015-Jun-29 23:33N 44°18' E 008°29'0 0.0
2015-Jun-29 22:33N 44°18' E 008°29'0 0.0
2015-Jun-29 21:33N 44°18' E 008°29'0 0.0
2015-Jun-29 20:33N 44°18' E 008°29'0 0.0
2015-Jun-29 19:33N 44°18' E 008°29'0 0.0
2015-Jun-29 18:30N 44°18' E 008°29'0 0.0
2015-Jun-29 17:33N 44°18' E 008°29'0 0.0
2015-Jun-29 16:27N 44°18' E 008°29'0 0.0
2015-Jun-29 15:33N 44°18' E 008°29'0 0.0
2015-Jun-29 14:33N 44°18' E 008°29'0 0.0
2015-Jun-29 13:30N 44°18' E 008°29'0 0.0
2015-Jun-29 12:27N 44°18' E 008°29'0 0.0
2015-Jun-29 11:33N 44°18' E 008°29'0 0.0
2015-Jun-29 10:33N 44°18' E 008°29'0 0.0
2015-Jun-29 09:33N 44°18' E 008°29'0 0.0
2015-Jun-29 08:33N 44°18' E 008°29'0 0.0
2015-Jun-29 07:33N 44°18' E 008°29'0 0.0
2015-Jun-29 06:33N 44°18' E 008°29'0 0.0
2015-Jun-29 05:30N 44°18' E 008°29'0 0.0
2015-Jun-29 04:33N 44°18' E 008°29'0 0.0
2015-Jun-29 03:33N 44°18' E 008°29'0 0.0
2015-Jun-29 02:33N 44°18' E 008°29'0 0.0
2015-Jun-29 01:24N 44°18' E 008°29'0 0.0
2015-Jun-29 00:33N 44°18' E 008°29'0 0.0
2015-Jun-28 23:33N 44°18' E 008°29'0 0.0
2015-Jun-28 22:33N 44°18' E 008°29'0 0.0
2015-Jun-28 21:21N 44°18' E 008°29'0 0.0
2015-Jun-28 20:33N 44°18' E 008°29'0 0.0
2015-Jun-28 19:27N 44°18' E 008°29'0 0.0
2015-Jun-28 17:30N 44°18' E 008°29'0 0.0
2015-Jun-28 16:27N 44°18' E 008°29'0 0.0
2015-Jun-28 11:33N 44°18' E 008°29'0 0.0
2015-Jun-28 10:33N 44°18' E 008°29'0 0.0
2015-Jun-28 09:33N 44°18' E 008°29'2 1.5
2015-Jun-28 08:09N 44°17' E 008°28'0 0.1
2015-Jun-28 07:33N 44°17' E 008°28'0 0.0
2015-Jun-28 06:33N 44°17' E 008°28'0 0.5
2015-Jun-28 05:33N 44°16' E 008°28'2 2.4
2015-Jun-28 04:34N 44°18' E 008°30'1 0.7
2015-Jun-28 03:29N 44°18' E 008°29'0 0.0
2015-Jun-27 22:29N 44°18' E 008°29'0 0.0
2015-Jun-27 21:11N 44°18' E 008°29'0 0.0
2015-Jun-27 19:23N 44°18' E 008°29'0 0.0
2015-Jun-27 18:20N 44°18' E 008°29'0 0.0
2015-Jun-27 17:32N 44°18' E 008°29'0 0.0
2015-Jun-27 16:29N 44°18' E 008°29'0 0.0
2015-Jun-27 15:29N 44°18' E 008°29'0 0.0
2015-Jun-27 14:29N 44°18' E 008°29'0 0.0
2015-Jun-27 13:17N 44°18' E 008°29'0 0.0
2015-Jun-27 12:26N 44°18' E 008°29'0 0.0
2015-Jun-27 11:29N 44°18' E 008°29'0 0.0
2015-Jun-27 10:32N 44°18' E 008°29'0 0.0
2015-Jun-27 09:32N 44°18' E 008°29'0 0.0
2015-Jun-27 08:32N 44°18' E 008°29'0 0.0
2015-Jun-27 07:32N 44°18' E 008°29'0 0.0
2015-Jun-27 06:32N 44°18' E 008°29'0 0.0
2015-Jun-27 05:32N 44°18' E 008°29'0 0.0
2015-Jun-27 04:32N 44°18' E 008°29'0 0.0
2015-Jun-27 03:32N 44°18' E 008°29'0 0.0
2015-Jun-27 02:32N 44°18' E 008°29'0 0.0
2015-Jun-27 01:32N 44°18' E 008°29'0 0.0
2015-Jun-27 00:32N 44°18' E 008°29'0 0.0
2015-Jun-26 23:32N 44°18' E 008°29'0 0.0
2015-Jun-26 22:32N 44°18' E 008°29'0 0.0
2015-Jun-26 21:26N 44°18' E 008°29'0 0.0
2015-Jun-26 20:32N 44°18' E 008°29'0 0.0
2015-Jun-26 19:32N 44°18' E 008°29'0 0.0
2015-Jun-26 18:32N 44°18' E 008°29'0 0.0
2015-Jun-26 17:26N 44°18' E 008°29'0 0.0
2015-Jun-26 16:32N 44°18' E 008°29'1 0.6
2015-Jun-26 15:33N 44°19' E 008°30'1 0.5
2015-Jun-26 14:29N 44°18' E 008°29'0 0.0
2015-Jun-26 13:32N 44°18' E 008°29'0 0.0
2015-Jun-26 12:32N 44°18' E 008°29'0 0.0
2015-Jun-26 11:29N 44°18' E 008°29'0 0.0
2015-Jun-26 10:32N 44°18' E 008°29'0 0.0
2015-Jun-26 09:32N 44°18' E 008°29'0 0.0
2015-Jun-26 08:32N 44°18' E 008°29'0 0.0
2015-Jun-26 07:29N 44°18' E 008°29'0 0.5
2015-Jun-26 06:33N 44°18' E 008°30'2 2.1
2015-Jun-26 05:29N 44°17' E 008°28'2 2.2
2015-Jun-26 04:31N 44°18' E 008°29'0 0.0
2015-Jun-26 03:31N 44°18' E 008°29'0 0.0
2015-Jun-26 02:31N 44°18' E 008°29'0 0.0
2015-Jun-26 01:31N 44°18' E 008°29'0 0.0
2015-Jun-26 00:31N 44°18' E 008°29'0 0.0
2015-Jun-25 23:31N 44°18' E 008°29'0 0.0
2015-Jun-25 22:31N 44°18' E 008°29'0 0.0
2015-Jun-25 21:31N 44°18' E 008°29'0 0.0
2015-Jun-25 20:31N 44°18' E 008°29'0 0.0
2015-Jun-25 19:28N 44°18' E 008°29'0 0.0
2015-Jun-25 18:31N 44°18' E 008°29'0 0.0
2015-Jun-25 17:31N 44°18' E 008°29'0 0.0
2015-Jun-25 16:31N 44°18' E 008°29'  

Dump ship's entire track history